Time;durP1;ratioP1;P1;durP2;ratioP2;P2;SDS_P1;SDS_P2;PMS_P1;PMS_P2;Temp;Humidity;BMP_temperature;BMP_pressure;BME280_temperature;BME280_humidity;BME280_pressure;Samples;Min_cycle;Max_cycle;Signal;HPM_P1;HPM_P2
2022/09/25 00:01:20;;;;;;;5.38;0.93;;;9.60;99.90;;;;;;5001604;28;20192;-60
2022/09/25 00:03:46;;;;;;;1.27;0.52;;;9.60;99.90;;;;;;4998289;28;20429;-60
2022/09/25 00:06:15;;;;;;;0.68;0.30;;;9.60;99.90;;;;;;5009951;28;20030;-60
2022/09/25 00:08:42;;;;;;;1.52;0.70;;;9.60;99.90;;;;;;5008224;28;20022;-60
2022/09/25 00:11:10;;;;;;;2.30;0.60;;;9.70;99.90;;;;;;5016914;28;20026;-60
2022/09/25 00:13:37;;;;;;;1.83;0.30;;;9.60;99.90;;;;;;5008206;28;20029;-60
2022/09/25 00:16:03;;;;;;;1.58;0.60;;;9.60;99.90;;;;;;5020709;28;20034;-60
2022/09/25 00:21:16;;;;;;;1.73;0.40;;;9.70;99.90;;;;;;5009668;28;20393;-60
2022/09/25 00:23:43;;;;;;;4.50;0.60;;;9.70;99.90;;;;;;5006181;28;20421;-60
2022/09/25 00:26:11;;;;;;;0.80;0.38;;;9.70;99.90;;;;;;5008088;28;20040;-60
2022/09/25 00:28:38;;;;;;;2.42;0.57;;;9.70;99.90;;;;;;5004632;28;20017;-60
2022/09/25 00:31:05;;;;;;;1.17;0.70;;;9.70;99.90;;;;;;5005933;28;20029;-60
2022/09/25 00:33:32;;;;;;;1.38;0.40;;;9.70;99.90;;;;;;5007497;28;20029;-60
2022/09/25 00:36:08;;;;;;;1.88;0.75;;;9.70;99.90;;;;;;5011599;28;20065;-60
2022/09/25 00:38:35;;;;;;;0.93;0.28;;;9.70;99.90;;;;;;5006359;28;20436;-60
2022/09/25 00:41:02;;;;;;;0.52;0.30;;;9.80;99.90;;;;;;5009200;28;20033;-60
2022/09/25 00:43:43;;;;;;;0.60;0.40;;;9.80;99.90;;;;;;4999693;28;20049;-60
2022/09/25 00:46:27;;;;;;;1.42;0.63;;;9.80;99.90;;;;;;5003572;28;20394;-60
2022/09/25 00:49:09;;;;;;;0.70;0.50;;;9.80;99.90;;;;;;5008079;28;20026;-60
2022/09/25 00:51:55;;;;;;;;;;;9.80;99.90;;;;;;5005562;28;20117;-60
2022/09/25 00:54:36;;;;;;;7.40;1.00;;;9.80;99.90;;;;;;5008536;28;19909;-60
2022/09/25 00:57:09;;;;;;;2.35;0.50;;;9.80;99.90;;;;;;5003378;28;20022;-60
2022/09/25 00:59:42;;;;;;;0.68;0.30;;;9.80;99.90;;;;;;5007602;28;20021;-60
2022/09/25 01:02:13;;;;;;;2.35;0.45;;;9.70;99.90;;;;;;5006992;28;20099;-60
2022/09/25 01:04:41;;;;;;;5.40;0.50;;;9.70;99.90;;;;;;5007244;28;20464;-60
2022/09/25 01:07:08;;;;;;;0.93;0.50;;;9.70;99.90;;;;;;5009791;28;20025;-60
2022/09/25 01:09:35;;;;;;;1.42;0.47;;;9.70;99.90;;;;;;5006603;28;20159;-60
2022/09/25 01:12:01;;;;;;;0.68;0.20;;;9.80;99.90;;;;;;5009792;28;20029;-60
2022/09/25 01:14:27;;;;;;;0.63;0.55;;;9.70;99.90;;;;;;5005601;28;20030;-60
2022/09/25 01:17:16;;;;;;;1.38;0.20;;;9.70;99.90;;;;;;5007168;28;20021;-60
2022/09/25 01:20:00;;;;;;;2.90;0.70;;;9.60;99.90;;;;;;5002496;28;20114;-60
2022/09/25 01:22:45;;;;;;;0.85;0.52;;;9.70;99.90;;;;;;5006784;28;20469;-60
2022/09/25 01:25:38;;;;;;;4.00;0.50;;;9.60;99.90;;;;;;5007692;28;20065;-60
2022/09/25 01:28:25;;;;;;;1.70;0.50;;;9.60;99.90;;;;;;5001623;28;20050;-60
2022/09/25 01:31:01;;;;;;;0.70;0.38;;;9.60;99.90;;;;;;4998712;28;20037;-60
2022/09/25 01:33:35;;;;;;;0.52;0.38;;;9.50;99.90;;;;;;5004455;28;20030;-60
2022/09/25 01:36:21;;;;;;;0.40;0.40;;;9.50;99.90;;;;;;5002639;28;20432;-61
2022/09/25 01:38:58;;;;;;;8.88;0.65;;;9.50;99.90;;;;;;4986213;28;20068;-60
2022/09/25 01:41:49;;;;;;;7.80;0.68;;;9.40;99.90;;;;;;5006326;28;20116;-60
2022/09/25 01:44:38;;;;;;;0.65;0.32;;;9.40;99.90;;;;;;5007610;28;20038;-60
2022/09/25 01:47:09;;;;;;;2.92;0.35;;;9.40;99.90;;;;;;5009446;28;20417;-60
2022/09/25 01:49:43;;;;;;;2.22;0.30;;;9.30;99.90;;;;;;5005075;28;20030;-60
2022/09/25 01:52:16;;;;;;;1.02;0.38;;;9.30;99.90;;;;;;5009199;28;20085;-61
2022/09/25 01:54:53;;;;;;;1.63;0.35;;;9.20;99.90;;;;;;5007483;28;20040;-61
2022/09/25 01:57:41;;;;;;;2.00;0.50;;;9.20;99.90;;;;;;5008024;28;20026;-61
2022/09/25 02:00:10;;;;;;;0.95;0.40;;;9.20;99.90;;;;;;5007477;28;20489;-61
2022/09/25 02:02:42;;;;;;;1.52;0.50;;;9.20;99.90;;;;;;5010234;28;20060;-61
2022/09/25 02:05:32;;;;;;;2.05;0.20;;;9.10;99.90;;;;;;5012984;28;20539;-61
2022/09/25 02:08:06;;;;;;;1.65;0.50;;;9.10;99.90;;;;;;5010172;28;20031;-61
2022/09/25 02:10:40;;;;;;;3.60;0.40;;;9.10;99.90;;;;;;5000380;28;20033;-61
2022/09/25 02:13:11;;;;;;;2.88;0.40;;;8.90;99.90;;;;;;5012090;28;20462;-61
2022/09/25 02:15:43;;;;;;;2.75;0.65;;;8.90;99.90;;;;;;5010149;28;20029;-61
2022/09/25 02:20:57;;;;;;;2.38;0.73;;;8.90;99.90;;;;;;5006853;28;20103;-61
2022/09/25 02:23:53;;;;;;;2.63;0.50;;;8.90;99.90;;;;;;5012494;28;20030;-61
2022/09/25 02:26:29;;;;;;;1.60;0.35;;;8.90;99.90;;;;;;5010175;28;20120;-61
2022/09/25 02:28:56;;;;;;;7.80;1.05;;;8.90;99.90;;;;;;5004819;28;20032;-60
2022/09/25 02:31:29;;;;;;;1.58;1.08;;;8.90;99.90;;;;;;5007993;28;20417;-61
2022/09/25 02:33:57;;;;;;;0.93;0.40;;;9.00;99.90;;;;;;5006817;28;20109;-61
2022/09/25 02:36:23;;;;;;;2.08;0.30;;;8.90;99.90;;;;;;5011859;28;20033;-61
2022/09/25 02:38:51;;;;;;;1.70;0.70;;;8.90;99.90;;;;;;5019829;28;20045;-61
2022/09/25 02:41:29;;;;;;;0.40;0.40;;;8.90;99.90;;;;;;5011053;28;20045;-61
2022/09/25 02:44:01;;;;;;;3.10;0.55;;;8.80;99.90;;;;;;5009542;28;20057;-61
2022/09/25 02:47:06;;;;;;;0.93;0.65;;;8.80;99.90;;;;;;5012358;28;20033;-61
2022/09/25 02:49:32;;;;;;;1.63;0.32;;;8.90;99.90;;;;;;5009877;28;20070;-61
2022/09/25 02:52:05;;;;;;;0.50;0.28;;;8.80;99.90;;;;;;4999883;28;20023;-61
2022/09/25 02:54:37;;;;;;;2.45;0.40;;;8.80;99.90;;;;;;5007128;28;20037;-61
2022/09/25 02:57:42;;;;;;;2.53;0.80;;;8.70;99.90;;;;;;5008029;28;20022;-61
2022/09/25 03:00:09;;;;;;;0.50;0.40;;;8.70;99.90;;;;;;5008659;28;20026;-61
2022/09/25 03:02:36;;;;;;;1.65;0.40;;;8.70;99.90;;;;;;5008525;28;20057;-61
2022/09/25 03:05:03;;;;;;;1.02;0.45;;;8.70;99.90;;;;;;5011695;28;20033;-61
2022/09/25 03:08:36;;;;;;;1.23;0.77;;;8.80;99.90;;;;;;5010023;28;20041;-61
2022/09/25 03:10:17;;;;;;;1.15;0.60;;;8.80;99.90;;;;;;5008450;28;20378;-60
2022/09/25 03:12:42;;;;;;;3.60;0.75;;;8.80;99.90;;;;;;5008652;28;20030;-60
2022/09/25 03:15:10;;;;;;;2.25;0.63;;;8.80;99.90;;;;;;5015884;28;20030;-60
2022/09/25 03:17:38;;;;;;;3.42;0.70;;;8.80;99.90;;;;;;5007455;28;20124;-60
2022/09/25 03:20:05;;;;;;;2.17;1.00;;;8.80;99.90;;;;;;5004705;28;20041;-60
2022/09/25 03:22:32;;;;;;;2.65;0.73;;;8.80;99.90;;;;;;5009396;28;20034;-60
2022/09/25 03:24:57;;;;;;;1.13;0.63;;;8.90;99.90;;;;;;5004648;28;20021;-60
2022/09/25 03:27:28;;;;;;;3.83;1.08;;;8.80;99.90;;;;;;5006920;28;20052;-60
2022/09/25 03:29:54;;;;;;;2.55;0.80;;;8.90;99.90;;;;;;5005946;28;20022;-60
2022/09/25 03:32:21;;;;;;;4.90;1.27;;;8.90;99.90;;;;;;5009128;28;20040;-61
2022/09/25 03:34:47;;;;;;;4.00;1.15;;;8.90;99.90;;;;;;5008165;28;20030;-60
2022/09/25 03:37:13;;;;;;;1.13;0.70;;;8.90;99.90;;;;;;5005331;28;20029;-61
2022/09/25 03:39:38;;;;;;;4.45;0.80;;;8.90;99.90;;;;;;5007829;28;20052;-60
2022/09/25 03:42:04;;;;;;;2.85;1.75;;;9.00;99.90;;;;;;5009314;28;20086;-60
2022/09/25 03:44:30;;;;;;;3.70;1.05;;;8.90;99.90;;;;;;5008297;28;20033;-60
2022/09/25 03:46:56;;;;;;;3.67;1.00;;;9.00;99.90;;;;;;5009182;28;20041;-60
2022/09/25 03:49:22;;;;;;;1.10;0.85;;;8.90;99.90;;;;;;5009434;28;20030;-60
2022/09/25 03:51:48;;;;;;;2.88;0.80;;;8.90;99.90;;;;;;5009207;28;20050;-60
2022/09/25 03:54:14;;;;;;;4.53;0.93;;;8.90;99.90;;;;;;5010438;28;20029;-60
2022/09/25 03:56:40;;;;;;;1.73;0.82;;;9.00;99.90;;;;;;5005913;28;20034;-60
2022/09/25 03:59:06;;;;;;;2.85;1.13;;;8.90;99.90;;;;;;5010736;28;20028;-60
2022/09/25 04:01:32;;;;;;;4.97;0.93;;;9.00;99.90;;;;;;5007147;28;20536;-60
2022/09/25 04:04:02;;;;;;;1.80;0.50;;;9.00;99.90;;;;;;5010370;28;20057;-60
2022/09/25 04:06:28;;;;;;;3.08;1.23;;;8.90;99.90;;;;;;5009212;28;20057;-60
2022/09/25 04:08:54;;;;;;;3.35;0.50;;;8.90;99.90;;;;;;5010646;28;20032;-60
2022/09/25 04:11:22;;;;;;;2.78;0.88;;;8.90;99.90;;;;;;5008326;28;20027;-61
2022/09/25 04:13:48;;;;;;;2.38;1.30;;;8.90;99.90;;;;;;5000897;28;20022;-60
2022/09/25 04:16:15;;;;;;;1.83;0.50;;;8.90;99.90;;;;;;5010443;28;20378;-60
2022/09/25 04:18:42;;;;;;;3.50;0.90;;;8.80;99.90;;;;;;5007522;28;20090;-60
2022/09/25 04:21:09;;;;;;;3.58;1.65;;;8.70;99.90;;;;;;5010132;28;20061;-60
2022/09/25 04:23:37;;;;;;;3.05;0.47;;;8.70;99.90;;;;;;5006511;28;20024;-60
2022/09/25 04:26:03;;;;;;;3.05;0.60;;;8.60;99.90;;;;;;5006435;28;20021;-60
2022/09/25 04:28:31;;;;;;;0.70;0.57;;;8.60;99.90;;;;;;4999528;28;20034;-61
2022/09/25 04:30:56;;;;;;;2.00;0.57;;;8.60;99.90;;;;;;5010222;28;20040;-61
2022/09/25 04:36:07;;;;;;;2.85;0.80;;;8.60;99.90;;;;;;5006411;28;20088;-60
2022/09/25 04:38:33;;;;;;;3.00;0.70;;;8.50;99.90;;;;;;5005501;28;20033;-61
2022/09/25 04:41:00;;;;;;;1.88;0.80;;;8.50;99.90;;;;;;5017672;28;20519;-60
2022/09/25 04:43:30;;;;;;;4.47;1.40;;;8.60;99.90;;;;;;5006882;28;20056;-60
2022/09/25 04:46:07;;;;;;;3.83;1.05;;;8.60;99.90;;;;;;5009093;28;20466;-60
2022/09/25 04:48:34;;;;;;;1.38;0.77;;;8.60;99.90;;;;;;5008072;28;20079;-60
2022/09/25 04:51:00;;;;;;;0.80;0.50;;;8.60;99.90;;;;;;5009586;28;20029;-60
2022/09/25 04:53:27;;;;;;;6.03;0.98;;;8.60;99.90;;;;;;5015119;28;20029;-60
2022/09/25 04:55:54;;;;;;;4.82;0.80;;;8.60;99.90;;;;;;5009133;28;20022;-60
2022/09/25 04:58:20;;;;;;;2.47;0.70;;;8.50;99.90;;;;;;5009368;28;20033;-60
2022/09/25 05:00:46;;;;;;;5.55;1.75;;;8.50;99.90;;;;;;5004519;28;20026;-60
2022/09/25 05:03:12;;;;;;;2.08;0.40;;;8.50;99.90;;;;;;5009474;28;20109;-60
2022/09/25 05:05:38;;;;;;;1.40;0.68;;;8.40;99.90;;;;;;5008367;28;20025;-60
2022/09/25 05:08:03;;;;;;;6.45;1.60;;;8.30;99.90;;;;;;5005246;28;20018;-60
2022/09/25 05:10:33;;;;;;;2.72;0.93;;;8.30;99.90;;;;;;5008047;28;20034;-60
2022/09/25 05:13:01;;;;;;;4.70;1.20;;;8.30;99.90;;;;;;5008527;28;20077;-60
2022/09/25 05:15:30;;;;;;;4.97;1.08;;;8.30;99.90;;;;;;5007121;28;20160;-60
2022/09/25 05:18:22;;;;;;;1.65;0.93;;;8.30;99.90;;;;;;5008916;28;20026;-60
2022/09/25 05:20:49;;;;;;;6.13;2.15;;;8.30;99.90;;;;;;5003835;28;20030;-60
2022/09/25 05:23:15;;;;;;;1.33;0.95;;;8.30;99.90;;;;;;5009084;28;20029;-60
2022/09/25 05:25:41;;;;;;;1.45;0.57;;;8.30;99.90;;;;;;5007717;28;20041;-60
2022/09/25 05:28:08;;;;;;;1.48;0.75;;;8.30;99.90;;;;;;5007272;28;20022;-60
2022/09/25 05:30:37;;;;;;;3.85;0.68;;;8.30;99.90;;;;;;5000544;28;20370;-60
2022/09/25 05:33:03;;;;;;;2.30;0.95;;;8.20;99.90;;;;;;5009508;28;20117;-60
2022/09/25 05:35:31;;;;;;;2.03;0.95;;;8.10;99.90;;;;;;5009269;28;20114;-61
2022/09/25 05:37:57;;;;;;;2.45;1.00;;;8.10;99.90;;;;;;5013629;28;20068;-60
2022/09/25 05:40:23;;;;;;;1.27;0.80;;;8.10;99.90;;;;;;5006395;28;20031;-61
2022/09/25 05:42:50;;;;;;;2.85;1.08;;;8.10;99.90;;;;;;5005924;28;20054;-60
2022/09/25 05:45:18;;;;;;;3.42;1.00;;;8.10;99.90;;;;;;5011557;28;20029;-60
2022/09/25 05:47:44;;;;;;;5.18;1.30;;;8.10;99.90;;;;;;5012202;28;20026;-60
2022/09/25 05:50:15;;;;;;;4.40;1.60;;;8.10;99.90;;;;;;5014010;28;20216;-60
2022/09/25 05:52:41;;;;;;;1.85;0.68;;;8.10;99.90;;;;;;5009959;28;20033;-60
2022/09/25 05:55:09;;;;;;;3.95;0.75;;;8.10;99.90;;;;;;5013214;28;20482;-60
2022/09/25 05:57:36;;;;;;;2.28;1.35;;;8.10;99.90;;;;;;5010241;28;20057;-60
2022/09/25 06:00:05;;;;;;;2.28;1.05;;;8.10;99.90;;;;;;5013787;28;20389;-60
2022/09/25 06:02:31;;;;;;;4.03;1.10;;;8.20;99.90;;;;;;5002830;28;20093;-60
2022/09/25 06:04:57;;;;;;;5.15;0.90;;;8.10;99.90;;;;;;5012914;28;20022;-61
2022/09/25 06:07:22;;;;;;;6.03;1.20;;;8.20;99.90;;;;;;5012941;28;20030;-60
2022/09/25 06:09:48;;;;;;;2.17;1.10;;;8.20;99.90;;;;;;5009169;28;20572;-60
2022/09/25 06:12:14;;;;;;;2.97;1.38;;;8.20;99.90;;;;;;5010704;28;20022;-60
2022/09/25 06:14:40;;;;;;;4.30;1.13;;;8.20;99.90;;;;;;5008894;28;20465;-60
2022/09/25 06:17:06;;;;;;;8.85;1.10;;;8.20;99.90;;;;;;5004772;28;20089;-60
2022/09/25 06:19:32;;;;;;;2.28;0.80;;;8.20;99.90;;;;;;5011062;28;20445;-61
2022/09/25 06:21:57;;;;;;;4.63;1.65;;;8.20;99.90;;;;;;5010983;28;20124;-60
2022/09/25 06:24:23;;;;;;;1.52;0.98;;;8.20;99.90;;;;;;5018107;28;20484;-62
2022/09/25 06:26:49;;;;;;;2.00;1.02;;;8.30;99.90;;;;;;5013013;28;20084;-61
2022/09/25 06:29:15;;;;;;;2.15;1.23;;;8.20;99.90;;;;;;5011924;28;20022;-62
2022/09/25 06:31:41;;;;;;;4.05;1.23;;;8.20;99.90;;;;;;5004061;28;20038;-61
2022/09/25 06:34:08;;;;;;;4.63;1.17;;;8.20;99.90;;;;;;5006773;28;20457;-60
2022/09/25 06:36:35;;;;;;;5.65;0.95;;;8.20;99.90;;;;;;5010245;28;20124;-61
2022/09/25 06:39:01;;;;;;;4.35;1.05;;;8.30;99.90;;;;;;5012784;28;20029;-61
2022/09/25 06:41:27;;;;;;;5.25;0.93;;;8.30;99.90;;;;;;5009506;28;20038;-61
2022/09/25 06:43:53;;;;;;;4.35;1.38;;;8.30;99.90;;;;;;5010010;28;20068;-61
2022/09/25 06:46:19;;;;;;;1.27;0.60;;;8.30;99.90;;;;;;5012088;28;20033;-60
2022/09/25 06:48:53;;;;;;;2.78;1.20;;;8.30;99.90;;;;;;5005214;28;20030;-61
2022/09/25 06:51:20;;;;;;;7.70;1.15;;;8.40;99.90;;;;;;5011266;28;20033;-60
2022/09/25 06:53:45;;;;;;;5.47;1.08;;;8.40;99.90;;;;;;5010452;28;20044;-62
2022/09/25 06:56:11;;;;;;;4.43;1.77;;;8.40;99.90;;;;;;5011726;28;20053;-60
2022/09/25 06:58:37;;;;;;;2.92;1.40;;;8.50;99.90;;;;;;5002544;28;20033;-59
2022/09/25 07:01:03;;;;;;;2.00;1.60;;;8.50;99.90;;;;;;5010974;28;20042;-60
2022/09/25 07:03:44;;;;;;;2.53;1.17;;;8.60;99.90;;;;;;5005782;28;20030;-59
2022/09/25 07:06:21;;;;;;;6.45;1.13;;;8.60;99.90;;;;;;5009779;28;20533;-60
2022/09/25 07:08:48;;;;;;;11.48;1.50;;;8.60;99.90;;;;;;5002961;28;20056;-59
2022/09/25 07:11:20;;;;;;;2.35;0.70;;;8.70;99.90;;;;;;4999909;28;20474;-60
2022/09/25 07:13:48;;;;;;;0.82;0.75;;;8.70;99.90;;;;;;5008023;28;20026;-61
2022/09/25 07:16:16;;;;;;;4.13;1.58;;;8.80;99.90;;;;;;5009174;28;20061;-61
2022/09/25 07:18:42;;;;;;;1.67;0.70;;;8.80;99.90;;;;;;5008051;28;20030;-61
2022/09/25 07:21:12;;;;;;;2.72;1.25;;;8.90;99.90;;;;;;5002398;28;20033;-61
2022/09/25 07:23:38;;;;;;;1.70;1.00;;;8.90;99.90;;;;;;5009700;28;20028;-61
2022/09/25 07:26:10;;;;;;;3.03;1.13;;;8.90;99.90;;;;;;5011080;28;20021;-61
2022/09/25 07:28:38;;;;;;;1.42;0.85;;;9.00;99.90;;;;;;5010528;28;20084;-61
2022/09/25 07:31:18;;;;;;;4.07;1.25;;;9.00;99.90;;;;;;5009043;28;20022;-61
2022/09/25 07:33:44;;;;;;;2.85;1.00;;;9.00;99.90;;;;;;5003379;28;20030;-61
2022/09/25 07:36:11;;;;;;;5.85;1.67;;;9.10;99.90;;;;;;5010922;28;20049;-61
2022/09/25 07:38:38;;;;;;;5.80;1.80;;;9.10;99.90;;;;;;5007946;28;20042;-62
2022/09/25 07:41:05;;;;;;;2.28;1.27;;;9.20;99.90;;;;;;5010460;28;20026;-60
2022/09/25 07:43:34;;;;;;;8.98;1.40;;;9.30;99.90;;;;;;5012868;28;20046;-61
2022/09/25 07:46:00;;;;;;;2.85;0.95;;;9.30;99.90;;;;;;5011125;28;20018;-61
2022/09/25 07:48:29;;;;;;;3.25;1.25;;;9.40;99.90;;;;;;5010703;28;20037;-60
2022/09/25 07:51:02;;;;;;;1.52;0.93;;;9.40;99.90;;;;;;5004659;28;20065;-60
2022/09/25 07:53:28;;;;;;;4.18;1.10;;;9.50;99.90;;;;;;5005763;28;20045;-60
2022/09/25 07:56:01;;;;;;;1.45;0.90;;;9.50;99.90;;;;;;5003645;28;20029;-61
2022/09/25 07:58:27;;;;;;;2.47;1.50;;;9.60;99.90;;;;;;5000300;28;20041;-61
2022/09/25 08:00:57;;;;;;;2.42;0.95;;;9.70;99.90;;;;;;5000406;28;20034;-61
2022/09/25 08:03:23;;;;;;;2.45;0.65;;;9.70;99.90;;;;;;5003188;28;20037;-61
2022/09/25 08:06:04;;;;;;;5.15;1.00;;;9.80;99.90;;;;;;5007101;28;20504;-60
2022/09/25 08:08:30;;;;;;;6.57;1.13;;;9.80;99.90;;;;;;5001282;28;20046;-61
2022/09/25 08:11:08;;;;;;;6.90;1.90;;;9.90;99.90;;;;;;5003503;28;20022;-60
2022/09/25 08:13:36;;;;;;;1.15;0.80;;;10.00;99.90;;;;;;5003896;28;20037;-60
2022/09/25 08:16:02;;;;;;;1.63;0.93;;;10.10;99.90;;;;;;5004062;28;20041;-60
2022/09/25 08:18:29;;;;;;;2.63;0.93;;;10.20;99.90;;;;;;5006465;28;20030;-60
2022/09/25 08:21:03;;;;;;;4.32;1.15;;;10.30;99.90;;;;;;5005737;28;20536;-60
2022/09/25 08:23:29;;;;;;;3.40;1.50;;;10.40;99.90;;;;;;4999214;28;20072;-60
2022/09/25 08:25:55;;;;;;;2.80;1.38;;;10.40;99.90;;;;;;5001851;28;20030;-60
2022/09/25 08:28:22;;;;;;;5.40;1.45;;;10.50;99.90;;;;;;5005948;28;20046;-59
2022/09/25 08:30:47;;;;;;;2.20;0.80;;;10.60;99.90;;;;;;5006073;28;20161;-60
2022/09/25 08:33:13;;;;;;;4.57;0.57;;;10.70;99.90;;;;;;5000506;28;20050;-59
2022/09/25 08:35:42;;;;;;;4.18;0.80;;;10.80;99.90;;;;;;5001998;28;20101;-60
2022/09/25 08:38:12;;;;;;;1.42;0.73;;;10.90;99.90;;;;;;5007203;28;20077;-60
2022/09/25 08:40:49;;;;;;;1.50;0.60;;;11.00;99.90;;;;;;5003338;28;20029;-60
2022/09/25 08:43:21;;;;;;;5.10;2.22;;;11.00;99.90;;;;;;5003988;28;20124;-60
2022/09/25 08:49:05;;;;;;;5.72;0.80;;;11.20;99.90;;;;;;4992899;28;20081;-59
2022/09/25 08:51:51;;;;;;;7.28;0.88;;;11.40;99.90;;;;;;5000681;28;20030;-59
2022/09/25 08:54:26;;;;;;;3.25;0.50;;;11.50;99.90;;;;;;4997901;28;20060;-60
2022/09/25 08:56:57;;;;;;;1.88;0.73;;;11.60;99.90;;;;;;5003814;28;20128;-60
2022/09/25 08:59:37;;;;;;;0.38;0.30;;;11.70;99.90;;;;;;5007065;28;20026;-59
2022/09/25 09:02:17;;;;;;;2.83;0.50;;;11.80;99.90;;;;;;5009559;28;20041;-60
2022/09/25 09:04:50;;;;;;;0.95;0.50;;;12.00;99.90;;;;;;5004989;28;20092;-61
2022/09/25 09:07:24;;;;;;;2.85;0.68;;;12.00;99.90;;;;;;5003593;28;20018;-60
2022/09/25 09:10:14;;;;;;;2.35;0.55;;;12.10;99.90;;;;;;5006924;28;20025;-61
2022/09/25 09:12:47;;;;;;;1.05;0.50;;;12.20;99.90;;;;;;5005211;28;20026;-61
2022/09/25 09:15:29;;;;;;;1.23;0.60;;;12.40;99.90;;;;;;5006916;28;20030;-61
2022/09/25 09:17:57;;;;;;;3.45;0.68;;;12.60;99.90;;;;;;5008827;28;20116;-61
2022/09/25 09:20:36;;;;;;;2.00;0.57;;;12.80;99.90;;;;;;5007763;28;20401;-61
2022/09/25 09:23:05;;;;;;;1.52;0.40;;;13.00;99.90;;;;;;5001430;28;20033;-61
2022/09/25 09:25:44;;;;;;;5.03;0.60;;;13.20;99.90;;;;;;5010781;28;20018;-60
2022/09/25 09:28:18;;;;;;;3.13;0.47;;;13.30;99.90;;;;;;5008469;28;20061;-61
2022/09/25 09:30:59;;;;;;;3.88;1.25;;;13.40;99.90;;;;;;5007547;28;20045;-61
2022/09/25 09:33:48;;;;;;;8.02;0.90;;;13.40;99.90;;;;;;5006292;28;20034;-60
2022/09/25 09:36:34;;;;;;;2.08;0.50;;;13.50;99.90;;;;;;5003671;28;20036;-61
2022/09/25 09:39:05;;;;;;;1.33;0.30;;;13.60;99.90;;;;;;5005961;28;20033;-61
2022/09/25 09:41:40;;;;;;;2.97;0.35;;;13.70;99.90;;;;;;5006885;28;20054;-59
2022/09/25 09:44:23;;;;;;;4.38;1.00;;;13.70;99.90;;;;;;5004338;28;20046;-60
2022/09/25 09:47:16;;;;;;;2.05;0.43;;;13.60;99.90;;;;;;5006769;28;20033;-60
2022/09/25 09:50:22;;;;;;;2.92;0.60;;;13.70;99.90;;;;;;5002036;28;20029;-60
2022/09/25 09:52:58;;;;;;;1.15;0.40;;;13.80;99.90;;;;;;5011527;28;20030;-60
2022/09/25 09:55:31;;;;;;;3.45;0.47;;;13.90;99.90;;;;;;5000187;28;20038;-60
2022/09/25 09:58:04;;;;;;;2.83;0.40;;;14.30;99.90;;;;;;4994092;28;20029;-61
2022/09/25 10:00:31;;;;;;;4.28;0.30;;;14.50;99.90;;;;;;5002515;28;20045;-61
2022/09/25 10:03:27;;;;;;;4.53;0.55;;;14.60;99.90;;;;;;5007557;28;20061;-61
2022/09/25 10:06:11;;;;;;;1.08;0.28;;;14.80;99.90;;;;;;5003405;28;20490;-61
2022/09/25 10:08:40;;;;;;;2.15;0.45;;;15.20;99.90;;;;;;5006443;28;20548;-61
2022/09/25 10:11:15;;;;;;;0.90;0.40;;;15.60;99.90;;;;;;5007327;28;20037;-60
2022/09/25 10:13:41;;;;;;;1.17;0.50;;;15.90;99.90;;;;;;5007098;28;20029;-60
2022/09/25 10:16:12;;;;;;;2.75;0.38;;;16.20;99.90;;;;;;5004043;28;20061;-58
2022/09/25 10:18:51;;;;;;;2.38;0.30;;;16.40;99.90;;;;;;5000021;28;20022;-60
2022/09/25 10:21:20;;;;;;;2.67;0.30;;;16.30;99.90;;;;;;5006826;28;20448;-60
2022/09/25 10:23:45;;;;;;;1.17;1.08;;;16.10;99.90;;;;;;5005501;28;20116;-60
2022/09/25 10:26:25;;;;;;;0.57;0.30;;;16.20;99.90;;;;;;5007359;28;20137;-60
2022/09/25 10:28:51;;;;;;;0.82;0.40;;;16.10;99.90;;;;;;5009853;28;20034;-60
2022/09/25 10:31:18;;;;;;;3.63;0.50;;;16.10;99.90;;;;;;5000356;28;20393;-59
2022/09/25 10:33:57;;;;;;;2.47;0.80;;;16.30;99.90;;;;;;5006480;28;20025;-60
2022/09/25 10:36:43;;;;;;;1.67;0.28;;;16.10;99.90;;;;;;5012414;28;20033;-60
2022/09/25 10:39:28;;;;;;;1.85;0.43;;;15.80;99.90;;;;;;5012968;28;20026;-60
2022/09/25 10:41:55;;;;;;;3.30;0.60;;;15.60;99.90;;;;;;5001030;28;20092;-61
2022/09/25 10:44:33;;;;;;;0.32;0.20;;;15.50;99.90;;;;;;5008615;28;20090;-60
2022/09/25 10:50:11;;;;;;;1.73;0.30;;;15.50;99.90;;;;;;5016940;28;20037;-60
2022/09/25 10:52:52;;;;;;;2.70;0.50;;;15.90;99.90;;;;;;5011139;28;20034;-60
2022/09/25 10:55:26;;;;;;;1.17;0.40;;;16.00;99.90;;;;;;5015882;28;20042;-60
2022/09/25 10:58:18;;;;;;;0.73;0.20;;;15.90;99.90;;;;;;5011253;28;20036;-60
2022/09/25 11:00:52;;;;;;;0.85;0.52;;;16.00;99.90;;;;;;5017143;28;20038;-60
2022/09/25 11:03:24;;;;;;;0.95;0.20;;;16.40;99.90;;;;;;5014483;28;20040;-61
2022/09/25 11:06:07;;;;;;;1.42;0.60;;;17.00;99.90;;;;;;5010186;28;20037;-61
2022/09/25 11:08:36;;;;;;;3.25;0.47;;;17.90;99.90;;;;;;5009600;28;20034;-61
2022/09/25 11:11:03;;;;;;;1.60;0.20;;;18.80;99.90;;;;;;5010729;28;20038;-62
2022/09/25 11:13:51;;;;;;;3.05;0.75;;;19.50;99.90;;;;;;5011365;28;20025;-62
2022/09/25 11:16:19;;;;;;;0.73;0.20;;;19.70;99.90;;;;;;5011593;28;20037;-60
2022/09/25 11:18:50;;;;;;;2.30;0.63;;;19.60;99.90;;;;;;5009302;28;20026;-60
2022/09/25 11:21:29;;;;;;;0.57;0.20;;;19.10;99.90;;;;;;5011746;28;20037;-60
2022/09/25 11:24:01;;;;;;;1.35;0.20;;;18.70;99.90;;;;;;5012539;28;20041;-60
2022/09/25 11:26:39;;;;;;;3.00;0.43;;;19.00;99.90;;;;;;5024781;28;20052;-61
2022/09/25 11:29:20;;;;;;;1.52;0.25;;;19.70;99.90;;;;;;5004763;28;20068;-61
2022/09/25 11:31:56;;;;;;;0.90;0.50;;;20.10;99.90;;;;;;5003920;28;20030;-61
2022/09/25 11:34:43;;;;;;;0.98;0.45;;;20.30;98.10;;;;;;5011064;28;20503;-59
2022/09/25 11:37:40;;;;;;;1.25;0.20;;;20.20;97.80;;;;;;5006826;28;20041;-61
2022/09/25 11:43:03;;;;;;;0.40;0.28;;;20.60;97.60;;;;;;4997227;28;20546;-61
2022/09/25 11:45:36;;;;;;;0.52;0.32;;;20.30;97.60;;;;;;5006528;28;20116;-60
2022/09/25 11:48:36;;;;;;;0.13;0.10;;;19.20;99.00;;;;;;4998847;28;20034;-60
2022/09/25 11:51:20;;;;;;;0.30;0.10;;;18.40;99.90;;;;;;5013503;28;20057;-60
2022/09/25 11:54:05;;;;;;;1.02;0.30;;;18.60;99.90;;;;;;5002847;28;20490;-60
2022/09/25 11:56:40;;;;;;;1.35;0.20;;;19.70;95.20;;;;;;5007080;28;20036;-61
2022/09/25 11:59:15;;;;;;;1.05;0.38;;;20.20;93.70;;;;;;5010677;28;20391;-61
2022/09/25 12:02:00;;;;;;;0.32;0.32;;;20.50;90.10;;;;;;5010806;28;20061;-61
2022/09/25 12:04:58;;;;;;;1.55;0.20;;;20.10;90.30;;;;;;5010023;28;20125;-61
2022/09/25 12:07:45;;;;;;;1.45;0.30;;;20.20;91.80;;;;;;5010219;28;20064;-61
2022/09/25 12:10:36;;;;;;;1.45;0.35;;;20.80;89.10;;;;;;5006564;28;20040;-61
2022/09/25 12:13:21;;;;;;;0.30;0.13;;;20.70;87.90;;;;;;5001840;28;20022;-61
2022/09/25 12:15:58;;;;;;;0.40;0.20;;;21.20;85.00;;;;;;5005403;28;20473;-61
2022/09/25 12:19:03;;;;;;;2.35;0.20;;;21.40;79.00;;;;;;5006665;28;20025;-61
2022/09/25 12:21:47;;;;;;;3.45;0.32;;;21.30;77.30;;;;;;5007414;28;20119;-61
2022/09/25 12:24:31;;;;;;;0.55;0.20;;;21.80;77.40;;;;;;5007136;28;20470;-61
2022/09/25 12:27:09;;;;;;;2.63;0.65;;;21.50;74.00;;;;;;5002468;28;20040;-61
2022/09/25 12:29:40;;;;;;;0.82;0.25;;;21.10;76.60;;;;;;5004392;28;20041;-62
2022/09/25 12:32:24;;;;;;;2.00;0.20;;;20.60;75.90;;;;;;5007630;28;20417;-60
2022/09/25 12:35:33;;;;;;;4.25;0.20;;;20.30;80.00;;;;;;5005261;28;20509;-60
2022/09/25 12:38:10;;;;;;;1.70;0.50;;;19.30;87.10;;;;;;4992637;28;20061;-60
2022/09/25 12:40:45;;;;;;;0.98;0.30;;;18.50;91.20;;;;;;5000147;28;20044;-61
2022/09/25 12:43:35;;;;;;;1.23;0.45;;;18.70;93.10;;;;;;5002654;28;20046;-61
2022/09/25 12:46:21;;;;;;;1.45;0.20;;;19.90;87.00;;;;;;5003211;28;20021;-61
2022/09/25 12:48:55;;;;;;;1.20;0.20;;;21.10;70.10;;;;;;4999766;28;20026;-61
2022/09/25 12:51:49;;;;;;;2.35;1.05;;;21.60;66.00;;;;;;5006387;28;20030;-61
2022/09/25 12:54:24;;;;;;;0.10;0.10;;;21.50;66.90;;;;;;5006514;28;20052;-62
2022/09/25 12:56:55;;;;;;;0.80;0.25;;;22.20;58.50;;;;;;4997335;28;20041;-62
2022/09/25 12:59:44;;;;;;;;;;;22.60;57.30;;;;;;5006743;28;20022;-60
2022/09/25 13:02:26;;;;;;;0.82;0.20;;;22.70;57.10;;;;;;5001641;28;19939;-71
2022/09/25 13:05:02;;;;;;;0.82;0.40;;;22.60;53.40;;;;;;5002617;28;20109;-62
2022/09/25 13:07:53;;;;;;;4.63;0.40;;;22.80;54.80;;;;;;5005303;28;20030;-61
2022/09/25 13:10:28;;;;;;;0.52;0.38;;;23.30;54.60;;;;;;5004681;28;20066;-62
2022/09/25 13:12:59;;;;;;;0.95;0.20;;;23.70;53.90;;;;;;5000253;28;20571;-61
2022/09/25 13:15:29;;;;;;;0.60;0.40;;;23.80;51.40;;;;;;5004519;28;20105;-61
2022/09/25 13:17:57;;;;;;;0.63;0.20;;;23.50;52.50;;;;;;5007279;28;20029;-65
2022/09/25 13:20:26;;;;;;;1.55;0.20;;;23.40;51.60;;;;;;5006105;28;20064;-62
2022/09/25 13:23:08;;;;;;;1.05;0.20;;;23.20;51.40;;;;;;5004312;28;20026;-62
2022/09/25 13:25:56;;;;;;;2.55;0.20;;;22.80;51.70;;;;;;5004398;28;20022;-61
2022/09/25 13:28:29;;;;;;;1.08;0.20;;;23.00;53.50;;;;;;4999957;28;20042;-66
2022/09/25 13:30:59;;;;;;;1.83;0.20;;;22.90;54.70;;;;;;5002146;28;20054;-59
2022/09/25 13:33:25;;;;;;;1.70;0.20;;;22.80;56.40;;;;;;5016551;28;20026;-59
2022/09/25 13:36:10;;;;;;;0.82;0.55;;;22.80;57.20;;;;;;5007867;28;20018;-57
2022/09/25 13:41:28;;;;;;;2.17;0.60;;;22.80;56.20;;;;;;5007987;28;20144;-60
2022/09/25 13:44:32;;;;;;;1.50;0.30;;;22.60;54.90;;;;;;5011756;28;20144;-59